createdAt,value
2023-02-04T00:00:02.325Z,7.24
2023-02-04T00:02:29.891Z,7.31
2023-02-04T00:04:57.422Z,7.17
2023-02-04T00:07:25.029Z,7.14
2023-02-04T00:09:52.623Z,7.20
2023-02-04T00:12:20.219Z,7.22
2023-02-04T00:14:47.886Z,7.24
2023-02-04T00:17:15.481Z,7.22
2023-02-04T00:19:43.106Z,7.20
2023-02-04T00:22:10.850Z,7.21
2023-02-04T00:24:38.918Z,7.13
2023-02-04T00:27:07.563Z,6.88
2023-02-04T00:29:35.273Z,6.92
2023-02-04T00:32:02.897Z,6.77
2023-02-04T00:34:30.429Z,6.77
2023-02-04T00:36:58.046Z,6.64
2023-02-04T00:39:25.618Z,6.68
2023-02-04T00:41:53.192Z,6.57
2023-02-04T00:44:20.671Z,6.56
2023-02-04T00:46:48.857Z,6.64
2023-02-04T00:49:16.335Z,6.63
2023-02-04T00:51:46.597Z,6.56
2023-02-04T00:54:15.932Z,6.49
2023-02-04T00:56:44.316Z,6.51
2023-02-04T00:59:12.052Z,6.47
2023-02-04T01:01:39.978Z,6.49
2023-02-04T01:04:07.520Z,6.50
2023-02-04T01:06:35.136Z,6.44
2023-02-04T01:09:03.363Z,6.57
2023-02-04T01:11:31.701Z,6.51
2023-02-04T01:13:59.291Z,6.55
2023-02-04T01:16:27.263Z,6.53
2023-02-04T01:18:55.974Z,6.51
2023-02-04T01:21:25.145Z,6.53
2023-02-04T01:23:52.773Z,6.49
2023-02-04T01:26:20.897Z,6.53
2023-02-04T01:28:48.483Z,6.50
2023-02-04T01:31:16.322Z,6.45
2023-02-04T01:33:43.887Z,6.50
2023-02-04T01:36:11.877Z,6.52
2023-02-04T01:38:39.538Z,6.59
2023-02-04T01:41:07.507Z,6.64
2023-02-04T01:43:35.213Z,6.66
2023-02-04T01:46:03.552Z,6.60
2023-02-04T01:48:31.523Z,6.51
2023-02-04T01:51:04.871Z,6.57
2023-02-04T01:53:32.710Z,6.56
2023-02-04T01:56:00.533Z,6.59
2023-02-04T01:58:29.796Z,6.53
2023-02-04T02:00:57.385Z,6.60
2023-02-04T02:03:24.961Z,6.59
2023-02-04T02:05:53.894Z,6.60
2023-02-04T02:08:21.497Z,6.62
2023-02-04T02:10:50.084Z,6.65
2023-02-04T02:13:18.847Z,6.69
2023-02-04T02:15:47.057Z,6.75
2023-02-04T02:18:15.038Z,6.78
2023-02-04T02:20:44.026Z,6.69
2023-02-04T02:23:14.463Z,6.72
2023-02-04T02:25:42.030Z,6.78
2023-02-04T02:28:12.881Z,6.66
2023-02-04T02:30:40.723Z,6.66
2023-02-04T02:33:08.327Z,6.65
2023-02-04T02:35:36.056Z,6.71
2023-02-04T02:38:03.567Z,6.68
2023-02-04T02:40:31.523Z,6.65
2023-02-04T02:42:59.384Z,6.60
2023-02-04T02:45:28.462Z,6.56
2023-02-04T02:47:57.360Z,6.69
2023-02-04T02:50:27.539Z,6.66
2023-02-04T02:52:55.429Z,6.66
2023-02-04T02:55:25.009Z,6.66
2023-02-04T02:57:53.780Z,6.63
2023-02-04T03:00:25.062Z,6.62
2023-02-04T03:03:12.009Z,6.70
2023-02-04T03:05:42.748Z,6.71
2023-02-04T03:08:12.276Z,6.71
2023-02-04T03:10:40.012Z,6.57
2023-02-04T03:13:07.740Z,6.49
2023-02-04T03:15:35.608Z,6.51
2023-02-04T03:18:03.679Z,6.35
2023-02-04T03:20:32.628Z,6.47
2023-02-04T03:23:00.565Z,6.41
2023-02-04T03:25:28.903Z,6.36
2023-02-04T03:27:58.138Z,6.32
2023-02-04T03:30:26.376Z,6.31
2023-02-04T03:32:54.399Z,6.22
2023-02-04T03:35:22.031Z,6.20
2023-02-04T03:37:49.696Z,6.14
2023-02-04T03:40:17.341Z,6.09
2023-02-04T03:42:44.877Z,5.94
2023-02-04T03:45:12.388Z,5.89
2023-02-04T03:47:39.953Z,5.80
2023-02-04T03:50:07.553Z,5.85
2023-02-04T03:52:35.082Z,5.85
2023-02-04T03:55:02.601Z,5.70
2023-02-04T03:57:30.272Z,5.64
2023-02-04T03:59:57.789Z,5.58
2023-02-04T04:02:25.410Z,5.44
2023-02-04T04:04:52.957Z,5.46
2023-02-04T04:07:20.509Z,5.43
2023-02-04T04:09:48.109Z,5.41
2023-02-04T04:12:15.556Z,5.46
2023-02-04T04:14:43.062Z,5.45
2023-02-04T04:17:10.554Z,5.50
2023-02-04T04:19:38.052Z,5.49
2023-02-04T04:22:05.552Z,5.55
2023-02-04T04:24:33.657Z,5.54
2023-02-04T04:27:01.141Z,5.55
2023-02-04T04:29:28.765Z,5.61
2023-02-04T04:31:56.280Z,5.57
2023-02-04T04:34:23.806Z,5.58
2023-02-04T04:36:51.307Z,5.55
2023-02-04T04:39:18.898Z,5.49
2023-02-04T04:41:46.465Z,5.55
2023-02-04T04:44:13.969Z,5.63
2023-02-04T04:46:41.636Z,5.64
2023-02-04T04:49:09.206Z,5.68
2023-02-04T04:51:36.726Z,5.72
2023-02-04T04:54:04.361Z,5.80
2023-02-04T04:56:31.895Z,5.78
2023-02-04T04:58:59.461Z,5.87
2023-02-04T05:01:29.526Z,5.91
2023-02-04T05:03:57.016Z,5.94
2023-02-04T05:06:25.485Z,5.88
2023-02-04T05:08:53.349Z,5.87
2023-02-04T05:11:21.222Z,5.90
2023-02-04T05:13:50.255Z,5.87
2023-02-04T05:16:18.363Z,6.05
2023-02-04T05:18:46.172Z,6.05
2023-02-04T05:21:16.646Z,6.06
2023-02-04T05:23:44.236Z,6.11
2023-02-04T05:26:15.339Z,5.94
2023-02-04T05:28:49.687Z,6.06
2023-02-04T05:31:17.335Z,5.99
2023-02-04T05:33:44.902Z,5.94
2023-02-04T05:36:12.418Z,5.89
2023-02-04T05:38:39.955Z,5.93
2023-02-04T05:41:07.509Z,5.90
2023-02-04T05:43:35.245Z,5.88
2023-02-04T05:46:03.338Z,6.00
2023-02-04T05:48:30.926Z,6.06
2023-02-04T05:50:58.722Z,6.11
2023-02-04T05:53:26.405Z,6.14
2023-02-04T05:55:53.904Z,6.17
2023-02-04T05:58:21.418Z,6.01
2023-02-04T06:00:48.990Z,6.12
2023-02-04T06:03:19.490Z,6.11
2023-02-04T06:05:47.114Z,6.12
2023-02-04T06:08:15.836Z,6.07
2023-02-04T06:10:43.386Z,5.99
2023-02-04T06:13:11.025Z,5.96
2023-02-04T06:15:38.549Z,5.97
2023-02-04T06:18:06.101Z,5.95
2023-02-04T06:20:33.903Z,5.87
2023-02-04T06:23:01.610Z,5.87
2023-02-04T06:25:29.189Z,5.80
2023-02-04T06:27:56.965Z,5.85
2023-02-04T06:30:24.540Z,5.85
2023-02-04T06:32:52.156Z,5.87
2023-02-04T06:35:20.091Z,5.90
2023-02-04T06:37:47.608Z,5.97
2023-02-04T06:40:15.192Z,5.97
2023-02-04T06:42:42.734Z,6.01
2023-02-04T06:45:10.353Z,6.10
2023-02-04T06:47:37.966Z,6.06
2023-02-04T06:50:05.637Z,6.10
2023-02-04T06:52:33.164Z,6.12
2023-02-04T06:55:00.708Z,6.19
2023-02-04T06:57:28.304Z,6.28
2023-02-04T06:59:55.900Z,6.33
2023-02-04T07:02:23.423Z,6.37
2023-02-04T07:04:51.223Z,6.40
2023-02-04T07:07:18.809Z,6.33
2023-02-04T07:09:46.409Z,6.29
2023-02-04T07:12:16.132Z,6.31
2023-02-04T07:14:43.815Z,6.26
2023-02-04T07:17:11.535Z,6.32
2023-02-04T07:19:39.066Z,6.39
2023-02-04T07:22:06.879Z,6.38
2023-02-04T07:24:34.393Z,6.37
2023-02-04T07:27:02.729Z,6.38
2023-02-04T07:29:30.392Z,6.40
2023-02-04T07:31:58.011Z,6.42
2023-02-04T07:34:25.651Z,6.42
2023-02-04T07:36:53.186Z,6.42
2023-02-04T07:39:20.726Z,6.42
2023-02-04T07:41:48.274Z,6.47
2023-02-04T07:44:15.848Z,6.53
2023-02-04T07:46:43.487Z,6.47
2023-02-04T07:49:11.078Z,6.56
2023-02-04T07:51:38.626Z,6.58
2023-02-04T07:54:06.164Z,6.66
2023-02-04T07:56:33.731Z,6.65
2023-02-04T07:59:01.333Z,6.77
2023-02-04T08:01:28.891Z,6.77
2023-02-04T08:03:56.460Z,6.84
2023-02-04T08:06:24.111Z,6.86
2023-02-04T08:08:51.698Z,6.93
2023-02-04T08:11:19.317Z,6.97
2023-02-04T08:13:46.861Z,7.01
2023-02-04T08:16:14.400Z,7.04
2023-02-04T08:18:41.892Z,7.07
2023-02-04T08:21:09.445Z,7.18
2023-02-04T08:23:41.675Z,7.30
2023-02-04T08:26:12.968Z,7.36
2023-02-04T08:28:40.545Z,7.40
2023-02-04T08:31:11.843Z,7.44
2023-02-04T08:33:39.929Z,7.52
2023-02-04T08:36:08.046Z,7.56
2023-02-04T08:38:35.840Z,7.68
2023-02-04T08:41:03.810Z,7.73
2023-02-04T08:43:31.385Z,7.82
2023-02-04T08:45:58.914Z,7.87
2023-02-04T08:48:26.456Z,7.91
2023-02-04T08:50:54.041Z,7.97
2023-02-04T08:53:21.576Z,8.04
2023-02-04T08:55:49.187Z,7.99
2023-02-04T08:58:16.721Z,8.00
2023-02-04T09:00:44.395Z,8.08
2023-02-04T09:03:11.955Z,7.99
2023-02-04T09:05:39.624Z,7.97
2023-02-04T09:08:07.199Z,8.09
2023-02-04T09:10:34.905Z,8.06
2023-02-04T09:13:02.540Z,8.16
2023-02-04T09:15:30.136Z,8.35
2023-02-04T09:18:04.835Z,8.27
2023-02-04T09:20:32.742Z,8.47
2023-02-04T09:23:00.568Z,8.46
2023-02-04T09:25:28.211Z,8.46
2023-02-04T09:27:55.870Z,8.62
2023-02-04T09:30:23.529Z,8.77
2023-02-04T09:32:51.453Z,8.96
2023-02-04T09:35:19.004Z,8.72
2023-02-04T09:37:46.560Z,9.02
2023-02-04T09:40:18.156Z,9.06
2023-02-04T09:42:47.011Z,9.04
2023-02-04T09:45:40.946Z,9.12
2023-02-04T09:48:10.290Z,9.17
2023-02-04T09:50:38.101Z,9.28
2023-02-04T09:53:06.529Z,9.27
2023-02-04T09:55:35.748Z,9.34
2023-02-04T09:58:03.360Z,9.48
2023-02-04T10:00:32.289Z,9.51
2023-02-04T10:03:01.769Z,9.64
2023-02-04T10:05:31.423Z,9.59
2023-02-04T10:07:59.648Z,9.64
2023-02-04T10:10:28.447Z,9.77
2023-02-04T10:12:57.404Z,9.73
2023-02-04T10:15:24.949Z,9.78
2023-02-04T10:17:54.609Z,9.88
2023-02-04T10:20:24.053Z,10.03
2023-02-04T10:22:53.508Z,10.10
2023-02-04T10:25:22.637Z,10.06
2023-02-04T10:27:52.963Z,10.03
2023-02-04T10:30:25.144Z,10.09
2023-02-04T10:32:53.104Z,10.04
2023-02-04T10:35:21.939Z,10.19
2023-02-04T10:37:49.841Z,10.37
2023-02-04T10:40:34.488Z,10.52
2023-02-04T10:43:31.438Z,10.45
2023-02-04T10:45:59.004Z,10.49
2023-02-04T10:48:27.982Z,10.44
2023-02-04T10:50:55.532Z,10.50
2023-02-04T10:53:41.448Z,10.45
2023-02-04T10:56:19.089Z,10.60
2023-02-04T10:58:46.670Z,10.51
2023-02-04T11:01:15.246Z,10.49
2023-02-04T11:03:43.584Z,10.58
2023-02-04T11:06:21.680Z,10.55
2023-02-04T11:08:50.309Z,10.65
2023-02-04T11:11:19.642Z,10.53
2023-02-04T11:13:59.435Z,10.56
2023-02-04T11:16:28.316Z,10.58
2023-02-04T11:19:00.026Z,10.63
2023-02-04T11:21:42.537Z,10.65
2023-02-04T11:24:13.833Z,10.76
2023-02-04T11:26:45.285Z,10.77
2023-02-04T11:29:24.797Z,10.72
2023-02-04T11:31:52.412Z,10.63
2023-02-04T11:34:19.978Z,10.47
2023-02-04T11:37:02.777Z,10.74
2023-02-04T11:39:34.184Z,10.93
2023-02-04T11:42:02.030Z,11.02
2023-02-04T11:44:29.688Z,10.94
2023-02-04T11:46:58.504Z,10.82
2023-02-04T11:49:27.661Z,10.84
2023-02-04T11:52:08.619Z,10.84
2023-02-04T11:54:36.687Z,10.68
2023-02-04T11:57:04.467Z,10.76
2023-02-04T11:59:32.020Z,10.90
2023-02-04T12:02:06.601Z,11.04
2023-02-04T12:04:33.992Z,11.11
2023-02-04T12:07:04.945Z,11.05
2023-02-04T12:09:32.734Z,11.30
2023-02-04T12:12:01.350Z,11.35
2023-02-04T12:14:39.430Z,11.39
2023-02-04T12:17:20.367Z,11.21
2023-02-04T12:19:47.765Z,11.11
2023-02-04T12:22:15.748Z,11.24
2023-02-04T12:24:44.063Z,11.26
2023-02-04T12:27:11.513Z,11.43
2023-02-04T12:29:38.939Z,11.63
2023-02-04T12:32:06.418Z,11.71
2023-02-04T12:34:33.871Z,12.11
2023-02-04T12:37:01.388Z,11.94
2023-02-04T12:39:29.595Z,12.27
2023-02-04T12:41:57.057Z,12.18
2023-02-04T12:44:24.547Z,12.06
2023-02-04T12:46:52.389Z,12.24
2023-02-04T12:49:19.953Z,12.34
2023-02-04T12:51:47.424Z,12.44
2023-02-04T12:54:14.820Z,12.70
2023-02-04T12:56:42.254Z,12.53
2023-02-04T12:59:09.628Z,12.41
2023-02-04T13:01:37.038Z,12.42
2023-02-04T13:04:04.638Z,12.09
2023-02-04T13:06:32.402Z,12.01
2023-02-04T13:08:59.882Z,11.77
2023-02-04T13:11:27.356Z,11.47
2023-02-04T13:13:54.756Z,11.46
2023-02-04T13:16:24.101Z,11.65
2023-02-04T13:18:52.078Z,11.68
2023-02-04T13:21:19.546Z,11.53
2023-02-04T13:23:47.033Z,11.48
2023-02-04T13:26:14.576Z,11.37
2023-02-04T13:28:42.188Z,11.41
2023-02-04T13:31:09.650Z,11.30
2023-02-04T13:33:37.078Z,11.30
2023-02-04T13:36:04.760Z,11.24
2023-02-04T13:38:32.218Z,11.32
2023-02-04T13:40:59.611Z,11.24
2023-02-04T13:43:27.030Z,11.33
2023-02-04T13:45:54.560Z,11.10
2023-02-04T13:48:22.056Z,10.92
2023-02-04T13:50:50.735Z,11.10
2023-02-04T13:53:18.295Z,11.16
2023-02-04T13:55:45.770Z,11.11
2023-02-04T13:58:13.212Z,10.98
2023-02-04T14:00:40.694Z,10.97
2023-02-04T14:03:08.111Z,10.98
2023-02-04T14:05:35.566Z,10.89
2023-02-04T14:08:02.999Z,10.89
2023-02-04T14:10:30.790Z,10.93
2023-02-04T14:12:58.807Z,10.71
2023-02-04T14:15:26.287Z,10.71
2023-02-04T14:17:53.727Z,10.83
2023-02-04T14:20:21.264Z,10.90
2023-02-04T14:22:48.718Z,10.84
2023-02-04T14:25:16.141Z,10.68
2023-02-04T14:27:43.610Z,10.69
2023-02-04T14:30:16.959Z,10.51
2023-02-04T14:32:44.394Z,10.32
2023-02-04T14:35:11.860Z,10.19
2023-02-04T14:37:39.400Z,10.02
2023-02-04T14:40:07.793Z,9.70
2023-02-04T14:42:35.833Z,9.32
2023-02-04T14:45:05.282Z,9.11
2023-02-04T14:47:33.778Z,8.81
2023-02-04T14:50:01.430Z,8.65
2023-02-04T14:52:29.010Z,8.59
2023-02-04T14:54:56.902Z,8.71
2023-02-04T14:57:24.544Z,8.49
2023-02-04T14:59:52.672Z,8.63
2023-02-04T15:02:20.657Z,8.63
2023-02-04T15:04:48.783Z,8.52
2023-02-04T15:07:16.671Z,8.66
2023-02-04T15:09:44.701Z,8.70
2023-02-04T15:12:12.536Z,8.80
2023-02-04T15:14:40.127Z,8.95
2023-02-04T15:17:07.704Z,8.80
2023-02-04T15:19:35.254Z,9.02
2023-02-04T15:22:03.148Z,9.07
2023-02-04T15:24:30.837Z,9.08
2023-02-04T15:26:58.501Z,8.95
2023-02-04T15:29:26.164Z,9.07
2023-02-04T15:31:53.826Z,9.23
2023-02-04T15:34:21.480Z,9.21
2023-02-04T15:36:49.158Z,9.13
2023-02-04T15:39:16.839Z,9.08
2023-02-04T15:41:44.447Z,8.98
2023-02-04T15:44:12.664Z,9.14
2023-02-04T15:46:40.222Z,8.97
2023-02-04T15:49:09.160Z,8.85
2023-02-04T15:51:36.735Z,8.91
2023-02-04T15:54:04.469Z,8.86
2023-02-04T15:56:33.956Z,8.76
2023-02-04T15:59:02.547Z,8.69
2023-02-04T16:01:30.148Z,8.77
2023-02-04T16:03:59.032Z,8.80
2023-02-04T16:06:26.958Z,8.60
2023-02-04T16:08:54.652Z,8.65
2023-02-04T16:11:22.218Z,8.70
2023-02-04T16:13:49.707Z,8.75
2023-02-04T16:16:17.361Z,8.64
2023-02-04T16:18:44.920Z,8.65
2023-02-04T16:21:12.494Z,8.67
2023-02-04T16:23:41.064Z,8.62
2023-02-04T16:26:09.961Z,8.60
2023-02-04T16:28:37.535Z,8.51
2023-02-04T16:31:05.344Z,8.50
2023-02-04T16:33:33.029Z,8.47
2023-02-04T16:36:08.503Z,8.42
2023-02-04T16:38:36.735Z,8.42
2023-02-04T16:41:04.281Z,8.45
2023-02-04T16:43:31.854Z,8.49
2023-02-04T16:45:59.463Z,8.52
2023-02-04T16:48:27.094Z,8.36
2023-02-04T16:50:54.717Z,8.34
2023-02-04T16:53:22.380Z,8.26
2023-02-04T16:55:50.004Z,8.27
2023-02-04T16:58:18.775Z,8.30
2023-02-04T17:00:46.406Z,8.30
2023-02-04T17:03:14.097Z,8.31
2023-02-04T17:05:41.801Z,8.27
2023-02-04T17:08:11.101Z,8.13
2023-02-04T17:10:57.475Z,8.20
2023-02-04T17:13:25.079Z,8.21
2023-02-04T17:15:52.614Z,8.16
2023-02-04T17:18:20.264Z,8.27
2023-02-04T17:20:47.815Z,8.25
2023-02-04T17:23:15.325Z,8.30
2023-02-04T17:25:43.128Z,8.26
2023-02-04T17:28:10.809Z,8.32
2023-02-04T17:30:38.434Z,8.33
2023-02-04T17:33:06.006Z,8.26
2023-02-04T17:35:33.769Z,8.24
2023-02-04T17:38:01.615Z,8.18
2023-02-04T17:40:29.355Z,8.19
2023-02-04T17:42:56.992Z,8.19
2023-02-04T17:45:24.752Z,8.27
2023-02-04T17:47:52.506Z,8.20
2023-02-04T17:50:20.136Z,8.19
2023-02-04T17:52:47.664Z,8.28
2023-02-04T17:55:22.462Z,8.24
2023-02-04T17:57:50.389Z,8.30
2023-02-04T18:00:19.945Z,8.30
2023-02-04T18:02:48.794Z,8.29
2023-02-04T18:05:21.346Z,8.30
2023-02-04T18:08:01.202Z,8.29
2023-02-04T18:10:37.263Z,8.32
2023-02-04T18:13:14.410Z,8.30
2023-02-04T18:15:43.102Z,8.38
2023-02-04T18:18:20.861Z,8.36
2023-02-04T18:20:48.999Z,8.39
2023-02-04T18:23:18.077Z,8.40
2023-02-04T18:25:46.166Z,8.50
2023-02-04T18:28:18.221Z,8.52
2023-02-04T18:30:46.210Z,8.32
2023-02-04T18:33:21.868Z,8.29
2023-02-04T18:35:51.760Z,8.37
2023-02-04T18:38:25.762Z,8.38
2023-02-04T18:40:56.936Z,8.25
2023-02-04T18:43:29.480Z,8.19
2023-02-04T18:45:58.360Z,8.11
2023-02-04T18:48:25.871Z,8.15
2023-02-04T18:50:54.748Z,8.18
2023-02-04T18:53:28.025Z,8.20
2023-02-04T18:55:57.975Z,8.23
2023-02-04T18:58:40.461Z,8.11
2023-02-04T19:01:17.024Z,8.09
2023-02-04T19:03:53.622Z,8.20
2023-02-04T19:06:27.050Z,8.07
2023-02-04T19:08:55.880Z,8.09
2023-02-04T19:11:26.441Z,8.08
2023-02-04T19:13:55.788Z,8.02
2023-02-04T19:16:25.107Z,8.10
2023-02-04T19:18:54.816Z,8.11
2023-02-04T19:21:25.966Z,8.09
2023-02-04T19:24:09.779Z,7.95
2023-02-04T19:26:41.349Z,7.92
2023-02-04T19:29:38.326Z,7.92
2023-02-04T19:32:28.929Z,7.93
2023-02-04T19:34:59.067Z,7.90
2023-02-04T19:37:39.547Z,7.91
2023-02-04T19:40:28.397Z,7.92
2023-02-04T19:42:57.046Z,7.91
2023-02-04T19:45:26.450Z,7.87
2023-02-04T19:47:55.124Z,7.86
2023-02-04T19:50:22.665Z,7.82
2023-02-04T19:52:52.380Z,7.81
2023-02-04T19:55:25.495Z,7.76
2023-02-04T19:57:54.986Z,7.76
2023-02-04T20:00:23.098Z,7.82
2023-02-04T20:02:50.672Z,7.79
2023-02-04T20:05:20.450Z,7.65
2023-02-04T20:07:48.024Z,7.54
2023-02-04T20:10:23.834Z,7.61
2023-02-04T20:12:52.400Z,7.72
2023-02-04T20:15:21.307Z,7.59
2023-02-04T20:17:50.166Z,7.44
2023-02-04T20:20:17.784Z,7.52
2023-02-04T20:23:11.413Z,7.59
2023-02-04T20:25:40.370Z,7.66
2023-02-04T20:28:19.132Z,7.60
2023-02-04T20:30:46.929Z,7.62
2023-02-04T20:33:23.575Z,7.62
2023-02-04T20:35:54.116Z,7.66
2023-02-04T20:38:21.689Z,7.65
2023-02-04T20:40:49.274Z,7.69
2023-02-04T20:43:16.901Z,7.66
2023-02-04T20:45:50.509Z,7.58
2023-02-04T20:48:18.065Z,7.57
2023-02-04T20:50:51.936Z,7.53
2023-02-04T20:53:23.662Z,7.53
2023-02-04T20:56:05.366Z,7.54
2023-02-04T20:58:39.700Z,7.58
2023-02-04T21:01:25.898Z,7.54
2023-02-04T21:03:53.449Z,7.52
2023-02-04T21:06:23.760Z,7.67
2023-02-04T21:08:52.707Z,7.67
2023-02-04T21:11:20.272Z,7.64
2023-02-04T21:13:47.797Z,7.54
2023-02-04T21:16:15.583Z,7.49
2023-02-04T21:18:43.140Z,7.48
2023-02-04T21:21:11.272Z,7.57
2023-02-04T21:23:38.824Z,7.64
2023-02-04T21:26:06.760Z,7.67
2023-02-04T21:28:34.766Z,7.69
2023-02-04T21:31:03.103Z,7.70
2023-02-04T21:33:30.775Z,7.66
2023-02-04T21:35:58.331Z,7.72
2023-02-04T21:38:25.909Z,7.69
2023-02-04T21:40:53.433Z,7.69
2023-02-04T21:43:20.990Z,7.68
2023-02-04T21:45:48.638Z,7.73
2023-02-04T21:48:16.313Z,7.76
2023-02-04T21:50:43.828Z,7.77
2023-02-04T21:53:11.972Z,7.73
2023-02-04T21:55:39.582Z,7.69
2023-02-04T21:58:07.379Z,7.74
2023-02-04T22:00:35.052Z,7.76
2023-02-04T22:03:02.663Z,7.82
2023-02-04T22:05:30.514Z,7.62
2023-02-04T22:07:59.811Z,7.68
2023-02-04T22:10:27.615Z,7.73
2023-02-04T22:12:55.163Z,7.77
2023-02-04T22:15:24.239Z,7.84
2023-02-04T22:17:53.168Z,7.79
2023-02-04T22:20:21.705Z,7.67
2023-02-04T22:22:50.046Z,7.65
2023-02-04T22:25:19.352Z,7.69
2023-02-04T22:27:47.038Z,7.78
2023-02-04T22:30:15.272Z,7.78
2023-02-04T22:32:42.873Z,7.79
2023-02-04T22:35:11.179Z,7.97
2023-02-04T22:37:39.670Z,7.97
2023-02-04T22:40:07.649Z,7.97
2023-02-04T22:42:35.235Z,8.01
2023-02-04T22:45:03.791Z,8.05
2023-02-04T22:47:31.956Z,8.01
2023-02-04T22:49:59.535Z,8.03
2023-02-04T22:52:27.227Z,8.03
2023-02-04T22:54:54.708Z,8.03
2023-02-04T22:57:22.311Z,8.04
2023-02-04T22:59:49.887Z,8.02
2023-02-04T23:02:17.541Z,8.12
2023-02-04T23:04:45.210Z,8.19
2023-02-04T23:07:13.383Z,8.04
2023-02-04T23:09:41.101Z,8.04
2023-02-04T23:12:13.667Z,8.09
2023-02-04T23:14:42.359Z,8.19
2023-02-04T23:17:10.424Z,8.10
2023-02-04T23:19:38.462Z,8.21
2023-02-04T23:22:06.640Z,8.11
2023-02-04T23:24:34.571Z,8.13
2023-02-04T23:27:03.297Z,8.23
2023-02-04T23:29:32.251Z,8.21
2023-02-04T23:31:59.857Z,8.16
2023-02-04T23:34:27.301Z,8.19
2023-02-04T23:36:54.798Z,8.18
2023-02-04T23:39:22.298Z,8.25
2023-02-04T23:41:50.238Z,8.13
2023-02-04T23:44:17.713Z,8.08
2023-02-04T23:46:45.407Z,8.06
2023-02-04T23:49:12.907Z,8.00
2023-02-04T23:51:40.717Z,8.00
2023-02-04T23:54:08.295Z,8.05
2023-02-04T23:56:35.996Z,8.03
2023-02-04T23:59:04.262Z,8.02
